Power, Montana
Current Conditions -  °F | °C
As of 3:53 PM on Thursday 27 Nov 2014 (Local Time) from KGTF Reporting Station
Clear Clear  
Wind Chill: 55°   Ceiling: Unl
Heat Index: 55°   Visibility: 10mi
Dew Point: 34°   Wind: 29mph
Humidity: 45%   Direction: 250°WSW
Pressure: 29.73"   Gusts: 36mph
Location:  47.71°N, 111.69°W
Report Text: KGTF 272253Z 25025G31KT 10SM CLR 13/01 A2973 RMK AO2 PK WND 24035/2201 SLP074 T01280011
Loading
Personal Weather Stations






























Interactive Weather Map New forecast layout! Learn more

10-Day Weather Forecast

Advertisements
Track Severe Weather on mobile